Авиационная погода в Липецке

СКИДКИ НА СМАРТФОНЫ!

Регион: 
Погода METAR: 
UUOL 120000Z 06002MPS CAVOK 08/08 Q1017 R15/090060 NOSIG
Время наблюдения
2022-09-12T00:00:00Z
Температура C
8.0
Точка росы
8.0
Направление ветра
60
Скорость ветра (узлы)
4
Метео видимость
6.21
Облачность
CAVOK
Нижняя граница облачности (футы)
Явления погоды
Условия полета
VFR
Аэропорт подробнее: 

Скидки на навигаторы!